sensor_id;sensor_type;location;lat;lon;timestamp;temperature;humidity
61841;DHT22;47773;53.174;6.614;2023-10-19T00:01:13;8.40;99.90
61841;DHT22;47773;53.174;6.614;2023-10-19T00:03:42;8.40;99.90
61841;DHT22;47773;53.174;6.614;2023-10-19T00:06:10;8.40;99.90
61841;DHT22;47773;53.174;6.614;2023-10-19T00:08:37;8.40;99.90
61841;DHT22;47773;53.174;6.614;2023-10-19T00:11:10;8.40;99.90
61841;DHT22;47773;53.174;6.614;2023-10-19T00:13:38;8.40;99.90
61841;DHT22;47773;53.174;6.614;2023-10-19T00:16:05;8.40;99.90
61841;DHT22;47773;53.174;6.614;2023-10-19T00:18:42;8.40;99.90
61841;DHT22;47773;53.174;6.614;2023-10-19T00:21:08;8.40;99.90
61841;DHT22;47773;53.174;6.614;2023-10-19T00:23:47;8.30;99.90
61841;DHT22;47773;53.174;6.614;2023-10-19T00:26:13;8.30;99.90
61841;DHT22;47773;53.174;6.614;2023-10-19T00:28:43;8.40;99.90
61841;DHT22;47773;53.174;6.614;2023-10-19T00:31:12;8.30;99.90
61841;DHT22;47773;53.174;6.614;2023-10-19T00:33:39;8.30;99.90
61841;DHT22;47773;53.174;6.614;2023-10-19T00:36:08;8.30;99.90
61841;DHT22;47773;53.174;6.614;2023-10-19T00:38:35;8.30;99.90
61841;DHT22;47773;53.174;6.614;2023-10-19T00:41:01;8.30;99.90
61841;DHT22;47773;53.174;6.614;2023-10-19T00:43:43;8.30;99.90
61841;DHT22;47773;53.174;6.614;2023-10-19T00:46:12;8.30;99.90
61841;DHT22;47773;53.174;6.614;2023-10-19T00:48:53;8.30;99.90
61841;DHT22;47773;53.174;6.614;2023-10-19T00:51:22;8.30;99.90
61841;DHT22;47773;53.174;6.614;2023-10-19T00:54:00;8.30;99.90
61841;DHT22;47773;53.174;6.614;2023-10-19T00:56:34;8.30;99.90
61841;DHT22;47773;53.174;6.614;2023-10-19T00:59:01;8.30;99.90
61841;DHT22;47773;53.174;6.614;2023-10-19T01:01:38;8.30;99.90
61841;DHT22;47773;53.174;6.614;2023-10-19T01:04:12;8.30;99.90
61841;DHT22;47773;53.174;6.614;2023-10-19T01:06:46;8.30;99.90
61841;DHT22;47773;53.174;6.614;2023-10-19T01:09:39;8.30;99.90
61841;DHT22;47773;53.174;6.614;2023-10-19T01:12:06;8.30;99.90
61841;DHT22;47773;53.174;6.614;2023-10-19T01:15:09;8.30;99.90
61841;DHT22;47773;53.174;6.614;2023-10-19T01:17:54;8.30;99.90
61841;DHT22;47773;53.174;6.614;2023-10-19T01:20:25;8.30;99.90
61841;DHT22;47773;53.174;6.614;2023-10-19T01:23:01;8.20;99.90
61841;DHT22;47773;53.174;6.614;2023-10-19T01:25:51;8.30;99.90
61841;DHT22;47773;53.174;6.614;2023-10-19T01:28:20;8.20;99.90
61841;DHT22;47773;53.174;6.614;2023-10-19T01:30:54;8.30;99.90
61841;DHT22;47773;53.174;6.614;2023-10-19T01:33:21;8.20;99.90
61841;DHT22;47773;53.174;6.614;2023-10-19T01:35:48;8.30;99.90
61841;DHT22;47773;53.174;6.614;2023-10-19T01:38:32;8.20;99.90
61841;DHT22;47773;53.174;6.614;2023-10-19T01:41:00;8.20;99.90
61841;DHT22;47773;53.174;6.614;2023-10-19T01:43:26;8.20;99.90
61841;DHT22;47773;53.174;6.614;2023-10-19T01:45:57;8.20;99.90
61841;DHT22;47773;53.174;6.614;2023-10-19T01:48:23;8.30;99.90
61841;DHT22;47773;53.174;6.614;2023-10-19T01:51:00;8.20;99.90
61841;DHT22;47773;53.174;6.614;2023-10-19T01:53:28;8.30;99.90
61841;DHT22;47773;53.174;6.614;2023-10-19T01:55:55;8.20;99.90
61841;DHT22;47773;53.174;6.614;2023-10-19T01:58:26;8.30;99.90
61841;DHT22;47773;53.174;6.614;2023-10-19T02:00:55;8.30;99.90
61841;DHT22;47773;53.174;6.614;2023-10-19T02:03:28;8.30;99.90
61841;DHT22;47773;53.174;6.614;2023-10-19T02:06:01;8.20;99.90
61841;DHT22;47773;53.174;6.614;2023-10-19T02:08:36;8.20;99.90
61841;DHT22;47773;53.174;6.614;2023-10-19T02:11:06;8.30;99.90
61841;DHT22;47773;53.174;6.614;2023-10-19T02:13:42;8.30;99.90
61841;DHT22;47773;53.174;6.614;2023-10-19T02:16:08;8.30;99.90
61841;DHT22;47773;53.174;6.614;2023-10-19T02:18:34;8.20;99.90
61841;DHT22;47773;53.174;6.614;2023-10-19T02:21:01;8.30;99.90
61841;DHT22;47773;53.174;6.614;2023-10-19T02:23:30;8.30;99.90
61841;DHT22;47773;53.174;6.614;2023-10-19T02:25:55;8.30;99.90
61841;DHT22;47773;53.174;6.614;2023-10-19T02:28:21;8.30;99.90
61841;DHT22;47773;53.174;6.614;2023-10-19T02:30:54;8.30;99.90
61841;DHT22;47773;53.174;6.614;2023-10-19T02:33:20;8.30;99.90
61841;DHT22;47773;53.174;6.614;2023-10-19T02:35:46;8.30;99.90
61841;DHT22;47773;53.174;6.614;2023-10-19T02:38:13;8.30;99.90
61841;DHT22;47773;53.174;6.614;2023-10-19T02:40:39;8.20;99.90
61841;DHT22;47773;53.174;6.614;2023-10-19T02:43:05;8.20;99.90
61841;DHT22;47773;53.174;6.614;2023-10-19T02:45:32;8.20;99.90
61841;DHT22;47773;53.174;6.614;2023-10-19T02:47:59;8.20;99.90
61841;DHT22;47773;53.174;6.614;2023-10-19T02:50:25;8.20;99.90
61841;DHT22;47773;53.174;6.614;2023-10-19T02:52:52;8.20;99.90
61841;DHT22;47773;53.174;6.614;2023-10-19T02:55:21;8.30;99.90
61841;DHT22;47773;53.174;6.614;2023-10-19T02:57:50;8.20;99.90
61841;DHT22;47773;53.174;6.614;2023-10-19T03:00:16;8.30;99.90
61841;DHT22;47773;53.174;6.614;2023-10-19T03:02:47;8.30;99.90
61841;DHT22;47773;53.174;6.614;2023-10-19T03:05:13;8.30;99.90
61841;DHT22;47773;53.174;6.614;2023-10-19T03:07:43;8.30;99.90
61841;DHT22;47773;53.174;6.614;2023-10-19T03:10:09;8.30;99.90
61841;DHT22;47773;53.174;6.614;2023-10-19T03:12:51;8.30;99.90
61841;DHT22;47773;53.174;6.614;2023-10-19T03:15:18;8.30;99.90
61841;DHT22;47773;53.174;6.614;2023-10-19T03:17:47;8.30;99.90
61841;DHT22;47773;53.174;6.614;2023-10-19T03:20:14;8.30;99.90
61841;DHT22;47773;53.174;6.614;2023-10-19T03:22:42;8.30;99.90
61841;DHT22;47773;53.174;6.614;2023-10-19T03:25:08;8.30;99.90
61841;DHT22;47773;53.174;6.614;2023-10-19T03:27:57;8.30;99.90
61841;DHT22;47773;53.174;6.614;2023-10-19T03:30:23;8.30;99.90
61841;DHT22;47773;53.174;6.614;2023-10-19T03:32:51;8.30;99.90
61841;DHT22;47773;53.174;6.614;2023-10-19T03:35:16;8.30;99.90
61841;DHT22;47773;53.174;6.614;2023-10-19T03:37:43;8.30;99.90
61841;DHT22;47773;53.174;6.614;2023-10-19T03:40:12;8.40;99.90
61841;DHT22;47773;53.174;6.614;2023-10-19T03:42:42;8.30;99.90
61841;DHT22;47773;53.174;6.614;2023-10-19T03:45:09;8.40;99.90
61841;DHT22;47773;53.174;6.614;2023-10-19T03:47:41;8.40;99.90
61841;DHT22;47773;53.174;6.614;2023-10-19T03:50:09;8.40;99.90
61841;DHT22;47773;53.174;6.614;2023-10-19T03:52:40;8.40;99.90
61841;DHT22;47773;53.174;6.614;2023-10-19T03:55:07;8.40;99.90
61841;DHT22;47773;53.174;6.614;2023-10-19T03:57:44;8.40;99.90
61841;DHT22;47773;53.174;6.614;2023-10-19T04:00:17;8.40;99.90
61841;DHT22;47773;53.174;6.614;2023-10-19T04:02:44;8.40;99.90
61841;DHT22;47773;53.174;6.614;2023-10-19T04:05:10;8.40;99.90
61841;DHT22;47773;53.174;6.614;2023-10-19T04:07:40;8.40;99.90
61841;DHT22;47773;53.174;6.614;2023-10-19T04:10:07;8.40;99.90
61841;DHT22;47773;53.174;6.614;2023-10-19T04:12:37;8.40;99.90
61841;DHT22;47773;53.174;6.614;2023-10-19T04:15:06;8.40;99.90
61841;DHT22;47773;53.174;6.614;2023-10-19T04:17:52;8.50;99.90
61841;DHT22;47773;53.174;6.614;2023-10-19T04:20:20;8.50;99.90
61841;DHT22;47773;53.174;6.614;2023-10-19T04:22:47;8.40;99.90
61841;DHT22;47773;53.174;6.614;2023-10-19T04:25:14;8.50;99.90
61841;DHT22;47773;53.174;6.614;2023-10-19T04:27:42;8.50;99.90
61841;DHT22;47773;53.174;6.614;2023-10-19T04:30:12;8.50;99.90
61841;DHT22;47773;53.174;6.614;2023-10-19T04:32:45;8.40;99.90
61841;DHT22;47773;53.174;6.614;2023-10-19T04:35:15;8.50;99.90
61841;DHT22;47773;53.174;6.614;2023-10-19T04:37:50;8.50;99.90
61841;DHT22;47773;53.174;6.614;2023-10-19T04:40:18;8.50;99.90
61841;DHT22;47773;53.174;6.614;2023-10-19T04:42:45;8.50;99.90
61841;DHT22;47773;53.174;6.614;2023-10-19T04:45:11;8.50;99.90
61841;DHT22;47773;53.174;6.614;2023-10-19T04:47:38;8.50;99.90
61841;DHT22;47773;53.174;6.614;2023-10-19T04:50:05;8.50;99.90
61841;DHT22;47773;53.174;6.614;2023-10-19T04:52:31;8.50;99.90
61841;DHT22;47773;53.174;6.614;2023-10-19T04:54:58;8.50;99.90
61841;DHT22;47773;53.174;6.614;2023-10-19T04:57:24;8.50;99.90
61841;DHT22;47773;53.174;6.614;2023-10-19T04:59:51;8.50;99.90
61841;DHT22;47773;53.174;6.614;2023-10-19T05:02:17;8.60;99.90
61841;DHT22;47773;53.174;6.614;2023-10-19T05:04:43;8.50;99.90
61841;DHT22;47773;53.174;6.614;2023-10-19T05:07:09;8.60;99.90
61841;DHT22;47773;53.174;6.614;2023-10-19T05:09:38;8.60;99.90
61841;DHT22;47773;53.174;6.614;2023-10-19T05:12:07;8.60;99.90
61841;DHT22;47773;53.174;6.614;2023-10-19T05:14:42;8.60;99.90
61841;DHT22;47773;53.174;6.614;2023-10-19T05:17:08;8.60;99.90
61841;DHT22;47773;53.174;6.614;2023-10-19T05:19:38;8.60;99.90
61841;DHT22;47773;53.174;6.614;2023-10-19T05:22:06;8.60;99.90
61841;DHT22;47773;53.174;6.614;2023-10-19T05:24:33;8.60;99.90
61841;DHT22;47773;53.174;6.614;2023-10-19T05:26:58;8.60;99.90
61841;DHT22;47773;53.174;6.614;2023-10-19T05:29:24;8.60;99.90
61841;DHT22;47773;53.174;6.614;2023-10-19T05:31:51;8.60;99.90
61841;DHT22;47773;53.174;6.614;2023-10-19T05:34:24;8.60;99.90
61841;DHT22;47773;53.174;6.614;2023-10-19T05:36:49;8.60;99.90
61841;DHT22;47773;53.174;6.614;2023-10-19T05:39:16;8.60;99.90
61841;DHT22;47773;53.174;6.614;2023-10-19T05:41:41;8.60;99.90
61841;DHT22;47773;53.174;6.614;2023-10-19T05:44:07;8.60;99.90
61841;DHT22;47773;53.174;6.614;2023-10-19T05:46:33;8.60;99.90
61841;DHT22;47773;53.174;6.614;2023-10-19T05:48:59;8.60;99.90
61841;DHT22;47773;53.174;6.614;2023-10-19T05:51:27;8.60;99.90
61841;DHT22;47773;53.174;6.614;2023-10-19T05:53:52;8.60;99.90
61841;DHT22;47773;53.174;6.614;2023-10-19T05:56:19;8.60;99.90
61841;DHT22;47773;53.174;6.614;2023-10-19T05:58:46;8.60;99.90
61841;DHT22;47773;53.174;6.614;2023-10-19T06:01:16;8.60;99.90
61841;DHT22;47773;53.174;6.614;2023-10-19T06:03:43;8.60;99.90
61841;DHT22;47773;53.174;6.614;2023-10-19T06:06:08;8.60;99.90
61841;DHT22;47773;53.174;6.614;2023-10-19T06:08:34;8.60;99.90
61841;DHT22;47773;53.174;6.614;2023-10-19T06:11:00;8.60;99.90
61841;DHT22;47773;53.174;6.614;2023-10-19T06:13:26;8.60;99.90
61841;DHT22;47773;53.174;6.614;2023-10-19T06:15:51;8.60;99.90
61841;DHT22;47773;53.174;6.614;2023-10-19T06:18:17;8.60;99.90
61841;DHT22;47773;53.174;6.614;2023-10-19T06:20:46;8.60;99.90
61841;DHT22;47773;53.174;6.614;2023-10-19T06:23:13;8.60;99.90
61841;DHT22;47773;53.174;6.614;2023-10-19T06:25:39;8.60;99.90
61841;DHT22;47773;53.174;6.614;2023-10-19T06:28:05;8.60;99.90
61841;DHT22;47773;53.174;6.614;2023-10-19T06:30:32;8.60;99.90
61841;DHT22;47773;53.174;6.614;2023-10-19T06:33:00;8.70;99.90
61841;DHT22;47773;53.174;6.614;2023-10-19T06:35:30;8.60;99.90
61841;DHT22;47773;53.174;6.614;2023-10-19T06:38:02;8.70;99.90
61841;DHT22;47773;53.174;6.614;2023-10-19T06:40:29;8.70;99.90
61841;DHT22;47773;53.174;6.614;2023-10-19T06:42:57;8.70;99.90
61841;DHT22;47773;53.174;6.614;2023-10-19T06:45:23;8.70;99.90
61841;DHT22;47773;53.174;6.614;2023-10-19T06:47:50;8.70;99.90
61841;DHT22;47773;53.174;6.614;2023-10-19T06:50:18;8.70;99.90
61841;DHT22;47773;53.174;6.614;2023-10-19T06:52:44;8.70;99.90
61841;DHT22;47773;53.174;6.614;2023-10-19T06:55:12;8.70;99.90
61841;DHT22;47773;53.174;6.614;2023-10-19T06:57:48;8.70;99.90
61841;DHT22;47773;53.174;6.614;2023-10-19T07:00:16;8.70;99.90
61841;DHT22;47773;53.174;6.614;2023-10-19T07:02:45;8.70;99.90
61841;DHT22;47773;53.174;6.614;2023-10-19T07:05:12;8.70;99.90
61841;DHT22;47773;53.174;6.614;2023-10-19T07:07:42;8.70;99.90
61841;DHT22;47773;53.174;6.614;2023-10-19T07:10:09;8.70;99.90
61841;DHT22;47773;53.174;6.614;2023-10-19T07:12:38;8.80;99.90
61841;DHT22;47773;53.174;6.614;2023-10-19T07:15:06;8.80;99.90
61841;DHT22;47773;53.174;6.614;2023-10-19T07:17:42;8.70;99.90
61841;DHT22;47773;53.174;6.614;2023-10-19T07:20:09;8.70;99.90
61841;DHT22;47773;53.174;6.614;2023-10-19T07:22:47;8.80;99.90
61841;DHT22;47773;53.174;6.614;2023-10-19T07:25:13;8.80;99.90
61841;DHT22;47773;53.174;6.614;2023-10-19T07:27:39;8.80;99.90
61841;DHT22;47773;53.174;6.614;2023-10-19T07:30:08;8.80;99.90
61841;DHT22;47773;53.174;6.614;2023-10-19T07:32:35;8.80;99.90
61841;DHT22;47773;53.174;6.614;2023-10-19T07:35:01;8.80;99.90
61841;DHT22;47773;53.174;6.614;2023-10-19T07:37:26;8.80;99.90
61841;DHT22;47773;53.174;6.614;2023-10-19T07:39:54;8.80;99.90
61841;DHT22;47773;53.174;6.614;2023-10-19T07:42:23;8.80;99.90
61841;DHT22;47773;53.174;6.614;2023-10-19T07:44:48;8.80;99.90
61841;DHT22;47773;53.174;6.614;2023-10-19T07:47:16;8.80;99.90
61841;DHT22;47773;53.174;6.614;2023-10-19T07:49:41;8.80;99.90
61841;DHT22;47773;53.174;6.614;2023-10-19T07:52:08;8.80;99.90
61841;DHT22;47773;53.174;6.614;2023-10-19T07:54:37;8.80;99.90
61841;DHT22;47773;53.174;6.614;2023-10-19T07:57:03;8.80;99.90
61841;DHT22;47773;53.174;6.614;2023-10-19T07:59:34;8.80;99.90
61841;DHT22;47773;53.174;6.614;2023-10-19T08:02:01;8.80;99.90
61841;DHT22;47773;53.174;6.614;2023-10-19T08:04:30;8.80;99.90
61841;DHT22;47773;53.174;6.614;2023-10-19T08:06:57;8.80;99.90
61841;DHT22;47773;53.174;6.614;2023-10-19T08:09:23;8.80;99.90
61841;DHT22;47773;53.174;6.614;2023-10-19T08:11:50;8.80;99.90
61841;DHT22;47773;53.174;6.614;2023-10-19T08:14:23;8.80;99.90
61841;DHT22;47773;53.174;6.614;2023-10-19T08:16:52;8.80;99.90
61841;DHT22;47773;53.174;6.614;2023-10-19T08:19:18;8.80;99.90
61841;DHT22;47773;53.174;6.614;2023-10-19T08:21:45;8.80;99.90
61841;DHT22;47773;53.174;6.614;2023-10-19T08:24:11;8.80;99.90
61841;DHT22;47773;53.174;6.614;2023-10-19T08:26:42;8.80;99.90
61841;DHT22;47773;53.174;6.614;2023-10-19T08:29:08;8.80;99.90
61841;DHT22;47773;53.174;6.614;2023-10-19T08:31:41;8.80;99.90
61841;DHT22;47773;53.174;6.614;2023-10-19T08:34:13;8.80;99.90
61841;DHT22;47773;53.174;6.614;2023-10-19T08:36:40;8.80;99.90
61841;DHT22;47773;53.174;6.614;2023-10-19T08:39:07;8.80;99.90
61841;DHT22;47773;53.174;6.614;2023-10-19T08:41:35;8.80;99.90
61841;DHT22;47773;53.174;6.614;2023-10-19T08:44:05;8.80;99.90
61841;DHT22;47773;53.174;6.614;2023-10-19T08:46:41;8.80;99.90
61841;DHT22;47773;53.174;6.614;2023-10-19T08:49:10;8.80;99.90
61841;DHT22;47773;53.174;6.614;2023-10-19T08:51:37;8.80;99.90
61841;DHT22;47773;53.174;6.614;2023-10-19T08:54:04;8.80;99.90
61841;DHT22;47773;53.174;6.614;2023-10-19T08:56:31;8.90;99.90
61841;DHT22;47773;53.174;6.614;2023-10-19T08:59:01;8.90;99.90
61841;DHT22;47773;53.174;6.614;2023-10-19T09:01:30;8.90;99.90
61841;DHT22;47773;53.174;6.614;2023-10-19T09:03:58;8.90;99.90
61841;DHT22;47773;53.174;6.614;2023-10-19T09:06:25;8.90;99.90
61841;DHT22;47773;53.174;6.614;2023-10-19T09:08:51;8.90;99.90
61841;DHT22;47773;53.174;6.614;2023-10-19T09:11:16;8.90;99.90
61841;DHT22;47773;53.174;6.614;2023-10-19T09:13:50;9.00;99.90
61841;DHT22;47773;53.174;6.614;2023-10-19T09:16:21;9.00;99.90
61841;DHT22;47773;53.174;6.614;2023-10-19T09:18:48;8.90;99.90
61841;DHT22;47773;53.174;6.614;2023-10-19T09:21:20;9.00;99.90
61841;DHT22;47773;53.174;6.614;2023-10-19T09:23:53;8.90;99.90
61841;DHT22;47773;53.174;6.614;2023-10-19T09:26:20;9.00;99.90
61841;DHT22;47773;53.174;6.614;2023-10-19T09:28:51;9.00;99.90
61841;DHT22;47773;53.174;6.614;2023-10-19T09:31:20;9.00;99.90
61841;DHT22;47773;53.174;6.614;2023-10-19T09:33:48;9.00;99.90
61841;DHT22;47773;53.174;6.614;2023-10-19T09:36:18;9.00;99.90
61841;DHT22;47773;53.174;6.614;2023-10-19T09:38:47;9.00;99.90
61841;DHT22;47773;53.174;6.614;2023-10-19T09:41:24;9.00;99.90
61841;DHT22;47773;53.174;6.614;2023-10-19T09:43:57;9.00;99.90
61841;DHT22;47773;53.174;6.614;2023-10-19T09:46:31;9.00;99.90
61841;DHT22;47773;53.174;6.614;2023-10-19T09:48:57;9.00;99.90
61841;DHT22;47773;53.174;6.614;2023-10-19T09:51:24;9.00;99.90
61841;DHT22;47773;53.174;6.614;2023-10-19T09:54:26;9.10;99.90
61841;DHT22;47773;53.174;6.614;2023-10-19T09:57:03;9.10;99.90
61841;DHT22;47773;53.174;6.614;2023-10-19T09:59:39;9.10;99.90
61841;DHT22;47773;53.174;6.614;2023-10-19T10:02:10;9.10;99.90
61841;DHT22;47773;53.174;6.614;2023-10-19T10:04:38;9.10;99.90
61841;DHT22;47773;53.174;6.614;2023-10-19T10:07:07;9.20;99.90
61841;DHT22;47773;53.174;6.614;2023-10-19T10:09:44;9.20;99.90
61841;DHT22;47773;53.174;6.614;2023-10-19T10:12:20;9.20;99.90
61841;DHT22;47773;53.174;6.614;2023-10-19T10:14:59;9.20;99.90
61841;DHT22;47773;53.174;6.614;2023-10-19T10:17:27;9.20;99.90
61841;DHT22;47773;53.174;6.614;2023-10-19T10:22:45;9.30;99.90
61841;DHT22;47773;53.174;6.614;2023-10-19T10:25:29;9.30;99.90
61841;DHT22;47773;53.174;6.614;2023-10-19T10:27:55;9.30;99.90
61841;DHT22;47773;53.174;6.614;2023-10-19T10:30:21;9.30;99.90
61841;DHT22;47773;53.174;6.614;2023-10-19T10:32:51;9.30;99.90
61841;DHT22;47773;53.174;6.614;2023-10-19T10:38:09;9.30;99.90
61841;DHT22;47773;53.174;6.614;2023-10-19T10:40:45;9.30;99.90
61841;DHT22;47773;53.174;6.614;2023-10-19T10:43:11;9.40;99.90
61841;DHT22;47773;53.174;6.614;2023-10-19T10:45:37;9.40;99.90
61841;DHT22;47773;53.174;6.614;2023-10-19T10:48:03;9.40;99.90
61841;DHT22;47773;53.174;6.614;2023-10-19T10:50:29;9.40;99.90
61841;DHT22;47773;53.174;6.614;2023-10-19T10:52:55;9.50;99.90
61841;DHT22;47773;53.174;6.614;2023-10-19T10:55:25;9.40;99.90
61841;DHT22;47773;53.174;6.614;2023-10-19T10:57:51;9.40;99.90
61841;DHT22;47773;53.174;6.614;2023-10-19T11:00:17;9.50;99.90
61841;DHT22;47773;53.174;6.614;2023-10-19T11:03:02;9.50;99.90
61841;DHT22;47773;53.174;6.614;2023-10-19T11:05:33;9.50;99.90
61841;DHT22;47773;53.174;6.614;2023-10-19T11:08:17;9.50;99.90
61841;DHT22;47773;53.174;6.614;2023-10-19T11:10:45;9.40;99.90
61841;DHT22;47773;53.174;6.614;2023-10-19T11:13:13;9.40;99.90
61841;DHT22;47773;53.174;6.614;2023-10-19T11:15:53;9.50;99.90
61841;DHT22;47773;53.174;6.614;2023-10-19T11:18:39;9.50;99.90
61841;DHT22;47773;53.174;6.614;2023-10-19T11:21:10;9.50;99.90
61841;DHT22;47773;53.174;6.614;2023-10-19T11:23:43;9.50;99.90
61841;DHT22;47773;53.174;6.614;2023-10-19T11:26:10;9.50;99.90
61841;DHT22;47773;53.174;6.614;2023-10-19T11:28:37;9.50;99.90
61841;DHT22;47773;53.174;6.614;2023-10-19T11:31:20;9.60;99.90
61841;DHT22;47773;53.174;6.614;2023-10-19T11:33:50;9.50;99.90
61841;DHT22;47773;53.174;6.614;2023-10-19T11:36:17;9.60;99.90
61841;DHT22;47773;53.174;6.614;2023-10-19T11:38:45;9.60;99.90
61841;DHT22;47773;53.174;6.614;2023-10-19T11:41:12;9.60;99.90
61841;DHT22;47773;53.174;6.614;2023-10-19T11:43:43;9.70;99.90
61841;DHT22;47773;53.174;6.614;2023-10-19T11:46:10;9.70;99.90
61841;DHT22;47773;53.174;6.614;2023-10-19T11:48:37;9.70;99.90
61841;DHT22;47773;53.174;6.614;2023-10-19T11:51:03;9.70;99.90
61841;DHT22;47773;53.174;6.614;2023-10-19T11:53:34;9.70;99.90
61841;DHT22;47773;53.174;6.614;2023-10-19T11:56:01;9.70;99.90
61841;DHT22;47773;53.174;6.614;2023-10-19T11:58:27;9.70;99.90
61841;DHT22;47773;53.174;6.614;2023-10-19T12:00:54;9.70;99.90
61841;DHT22;47773;53.174;6.614;2023-10-19T12:03:20;9.70;99.90
61841;DHT22;47773;53.174;6.614;2023-10-19T12:05:46;9.70;99.90
61841;DHT22;47773;53.174;6.614;2023-10-19T12:08:12;9.70;99.90
61841;DHT22;47773;53.174;6.614;2023-10-19T12:10:37;9.70;99.90
61841;DHT22;47773;53.174;6.614;2023-10-19T12:13:06;9.70;99.90
61841;DHT22;47773;53.174;6.614;2023-10-19T12:15:34;9.70;99.90
61841;DHT22;47773;53.174;6.614;2023-10-19T12:18:00;9.70;99.90
61841;DHT22;47773;53.174;6.614;2023-10-19T12:20:26;9.70;99.90
61841;DHT22;47773;53.174;6.614;2023-10-19T12:22:52;9.70;99.90
61841;DHT22;47773;53.174;6.614;2023-10-19T12:25:20;9.70;99.90
61841;DHT22;47773;53.174;6.614;2023-10-19T12:27:55;9.70;99.90
61841;DHT22;47773;53.174;6.614;2023-10-19T12:30:21;9.70;99.90
61841;DHT22;47773;53.174;6.614;2023-10-19T12:32:50;9.70;99.90
61841;DHT22;47773;53.174;6.614;2023-10-19T12:35:16;9.70;99.90
61841;DHT22;47773;53.174;6.614;2023-10-19T12:37:45;9.70;99.90
61841;DHT22;47773;53.174;6.614;2023-10-19T12:40:18;9.60;99.90
61841;DHT22;47773;53.174;6.614;2023-10-19T12:42:52;9.60;99.90
61841;DHT22;47773;53.174;6.614;2023-10-19T12:45:24;9.60;99.90
61841;DHT22;47773;53.174;6.614;2023-10-19T12:47:50;9.50;99.90
61841;DHT22;47773;53.174;6.614;2023-10-19T12:50:19;9.50;99.90
61841;DHT22;47773;53.174;6.614;2023-10-19T12:52:49;9.50;99.90
61841;DHT22;47773;53.174;6.614;2023-10-19T12:55:16;9.60;99.90
61841;DHT22;47773;53.174;6.614;2023-10-19T12:57:42;9.60;99.90
61841;DHT22;47773;53.174;6.614;2023-10-19T13:00:08;9.60;99.90
61841;DHT22;47773;53.174;6.614;2023-10-19T13:02:55;9.50;99.90
61841;DHT22;47773;53.174;6.614;2023-10-19T13:05:32;9.60;99.90
61841;DHT22;47773;53.174;6.614;2023-10-19T13:07:58;9.50;99.90
61841;DHT22;47773;53.174;6.614;2023-10-19T13:10:28;9.50;99.90
61841;DHT22;47773;53.174;6.614;2023-10-19T13:13:01;9.50;99.90
61841;DHT22;47773;53.174;6.614;2023-10-19T13:15:36;9.50;99.90
61841;DHT22;47773;53.174;6.614;2023-10-19T13:18:03;9.50;99.90
61841;DHT22;47773;53.174;6.614;2023-10-19T13:20:29;9.50;99.90
61841;DHT22;47773;53.174;6.614;2023-10-19T13:23:07;9.50;99.90
61841;DHT22;47773;53.174;6.614;2023-10-19T13:25:37;9.50;99.90
61841;DHT22;47773;53.174;6.614;2023-10-19T13:28:27;9.50;99.90
61841;DHT22;47773;53.174;6.614;2023-10-19T13:30:53;9.50;99.90
61841;DHT22;47773;53.174;6.614;2023-10-19T13:33:20;9.50;99.90
61841;DHT22;47773;53.174;6.614;2023-10-19T13:35:52;9.50;99.90
61841;DHT22;47773;53.174;6.614;2023-10-19T13:38:19;9.50;99.90
61841;DHT22;47773;53.174;6.614;2023-10-19T13:40:48;9.50;99.90
61841;DHT22;47773;53.174;6.614;2023-10-19T13:43:16;9.50;99.90
61841;DHT22;47773;53.174;6.614;2023-10-19T13:45:44;9.50;99.90
61841;DHT22;47773;53.174;6.614;2023-10-19T13:48:14;9.50;99.90
61841;DHT22;47773;53.174;6.614;2023-10-19T13:50:45;9.50;99.90
61841;DHT22;47773;53.174;6.614;2023-10-19T13:53:16;9.50;99.90
61841;DHT22;47773;53.174;6.614;2023-10-19T13:55:43;9.40;99.90
61841;DHT22;47773;53.174;6.614;2023-10-19T13:58:09;9.40;99.90
61841;DHT22;47773;53.174;6.614;2023-10-19T14:00:36;9.40;99.90
61841;DHT22;47773;53.174;6.614;2023-10-19T14:03:05;9.40;99.90
61841;DHT22;47773;53.174;6.614;2023-10-19T14:05:39;9.40;99.90
61841;DHT22;47773;53.174;6.614;2023-10-19T14:08:06;9.40;99.90
61841;DHT22;47773;53.174;6.614;2023-10-19T14:10:33;9.40;99.90
61841;DHT22;47773;53.174;6.614;2023-10-19T14:12:59;9.50;99.90
61841;DHT22;47773;53.174;6.614;2023-10-19T14:15:25;9.50;99.90
61841;DHT22;47773;53.174;6.614;2023-10-19T14:17:56;9.40;99.90
61841;DHT22;47773;53.174;6.614;2023-10-19T14:20:25;9.50;99.90
61841;DHT22;47773;53.174;6.614;2023-10-19T14:22:51;9.50;99.90
61841;DHT22;47773;53.174;6.614;2023-10-19T14:25:21;9.50;99.90
61841;DHT22;47773;53.174;6.614;2023-10-19T14:27:50;9.50;99.90
61841;DHT22;47773;53.174;6.614;2023-10-19T14:30:17;9.50;99.90
61841;DHT22;47773;53.174;6.614;2023-10-19T14:32:45;9.40;99.90
61841;DHT22;47773;53.174;6.614;2023-10-19T14:35:13;9.40;99.90
61841;DHT22;47773;53.174;6.614;2023-10-19T14:37:42;9.40;99.90
61841;DHT22;47773;53.174;6.614;2023-10-19T14:40:18;9.40;99.90
61841;DHT22;47773;53.174;6.614;2023-10-19T14:42:47;9.50;99.90
61841;DHT22;47773;53.174;6.614;2023-10-19T14:45:15;9.40;99.90
61841;DHT22;47773;53.174;6.614;2023-10-19T14:47:46;9.40;99.90
61841;DHT22;47773;53.174;6.614;2023-10-19T14:50:12;9.40;99.90
61841;DHT22;47773;53.174;6.614;2023-10-19T14:52:45;9.40;99.90
61841;DHT22;47773;53.174;6.614;2023-10-19T14:55:12;9.40;99.90
61841;DHT22;47773;53.174;6.614;2023-10-19T14:57:41;9.40;99.90
61841;DHT22;47773;53.174;6.614;2023-10-19T15:00:09;9.40;99.90
61841;DHT22;47773;53.174;6.614;2023-10-19T15:02:48;9.40;99.90
61841;DHT22;47773;53.174;6.614;2023-10-19T15:05:15;9.40;99.90
61841;DHT22;47773;53.174;6.614;2023-10-19T15:07:49;9.40;99.90
61841;DHT22;47773;53.174;6.614;2023-10-19T15:10:20;9.40;99.90
61841;DHT22;47773;53.174;6.614;2023-10-19T15:12:46;9.40;99.90
61841;DHT22;47773;53.174;6.614;2023-10-19T15:15:12;9.40;99.90
61841;DHT22;47773;53.174;6.614;2023-10-19T15:17:43;9.40;99.90
61841;DHT22;47773;53.174;6.614;2023-10-19T15:20:10;9.40;99.90
61841;DHT22;47773;53.174;6.614;2023-10-19T15:22:37;9.40;99.90
61841;DHT22;47773;53.174;6.614;2023-10-19T15:25:04;9.40;99.90
61841;DHT22;47773;53.174;6.614;2023-10-19T15:27:31;9.40;99.90
61841;DHT22;47773;53.174;6.614;2023-10-19T15:29:57;9.40;99.90
61841;DHT22;47773;53.174;6.614;2023-10-19T15:32:23;9.40;99.90
61841;DHT22;47773;53.174;6.614;2023-10-19T15:34:50;9.40;99.90
61841;DHT22;47773;53.174;6.614;2023-10-19T15:37:16;9.40;99.90
61841;DHT22;47773;53.174;6.614;2023-10-19T15:39:42;9.40;99.90
61841;DHT22;47773;53.174;6.614;2023-10-19T15:42:10;9.40;99.90
61841;DHT22;47773;53.174;6.614;2023-10-19T15:44:37;9.40;99.90
61841;DHT22;47773;53.174;6.614;2023-10-19T15:47:03;9.40;99.90
61841;DHT22;47773;53.174;6.614;2023-10-19T15:49:36;9.40;99.90
61841;DHT22;47773;53.174;6.614;2023-10-19T15:52:03;9.40;99.90
61841;DHT22;47773;53.174;6.614;2023-10-19T15:54:29;9.40;99.90
61841;DHT22;47773;53.174;6.614;2023-10-19T15:56:55;9.40;99.90
61841;DHT22;47773;53.174;6.614;2023-10-19T15:59:21;9.30;99.90
61841;DHT22;47773;53.174;6.614;2023-10-19T16:01:46;9.30;99.90
61841;DHT22;47773;53.174;6.614;2023-10-19T16:04:12;9.40;99.90